createdAt,value
2023-03-22T00:02:12.478Z,32.50
2023-03-22T00:04:38.987Z,33.00
2023-03-22T00:07:05.537Z,32.30
2023-03-22T00:09:32.015Z,32.60
2023-03-22T00:11:58.466Z,33.80
2023-03-22T00:14:25.012Z,33.10
2023-03-22T00:16:51.537Z,33.80
2023-03-22T00:19:18.034Z,31.90
2023-03-22T00:21:45.600Z,32.80
2023-03-22T00:24:12.087Z,31.70
2023-03-22T00:26:38.517Z,31.60
2023-03-22T00:29:05.625Z,32.80
2023-03-22T00:31:32.119Z,32.30
2023-03-22T00:33:58.749Z,32.00
2023-03-22T00:36:25.247Z,32.50
2023-03-22T00:38:51.934Z,34.60
2023-03-22T00:41:21.411Z,33.90
2023-03-22T00:43:49.183Z,33.50
2023-03-22T00:46:17.450Z,34.00
2023-03-22T00:48:44.493Z,34.30
2023-03-22T00:51:11.775Z,30.30
2023-03-22T00:53:42.586Z,29.80
2023-03-22T00:56:13.101Z,27.90
2023-03-22T01:01:20.619Z,24.50
2023-03-22T01:03:49.975Z,25.80
2023-03-22T01:06:17.306Z,26.10
2023-03-22T01:08:45.302Z,25.30
2023-03-22T01:11:12.219Z,24.60
2023-03-22T01:13:38.797Z,23.40
2023-03-22T01:16:06.566Z,22.50
2023-03-22T01:18:34.273Z,23.20
2023-03-22T01:21:01.668Z,22.00
2023-03-22T01:23:28.292Z,21.50
2023-03-22T01:25:54.933Z,21.40
2023-03-22T01:28:21.583Z,21.40
2023-03-22T01:30:48.353Z,21.70
2023-03-22T01:33:15.036Z,22.60
2023-03-22T01:35:41.550Z,22.10
2023-03-22T01:38:08.350Z,21.60
2023-03-22T01:40:38.799Z,22.00
2023-03-22T01:43:13.259Z,22.80
2023-03-22T01:45:45.017Z,21.80
2023-03-22T01:48:15.016Z,23.10
2023-03-22T01:50:48.959Z,22.70
2023-03-22T01:53:18.390Z,22.60
2023-03-22T01:55:46.437Z,21.60
2023-03-22T01:58:22.647Z,21.60
2023-03-22T02:00:53.644Z,22.60
2023-03-22T02:03:37.199Z,22.60
2023-03-22T02:06:04.224Z,22.80
2023-03-22T02:08:32.344Z,24.00
2023-03-22T02:11:02.809Z,24.00
2023-03-22T02:14:09.630Z,23.70
2023-03-22T02:17:19.141Z,24.80
2023-03-22T02:20:38.062Z,23.30
2023-03-22T02:23:23.354Z,24.90
2023-03-22T02:26:38.630Z,24.60
2023-03-22T02:29:38.950Z,24.90
2023-03-22T02:32:22.790Z,26.40
2023-03-22T02:35:18.080Z,26.20
2023-03-22T02:38:04.746Z,27.10
2023-03-22T02:40:41.818Z,26.80
2023-03-22T02:43:37.722Z,25.20
2023-03-22T02:46:11.246Z,25.90
2023-03-22T02:48:45.294Z,26.20
2023-03-22T02:51:21.707Z,26.40
2023-03-22T02:54:04.040Z,25.90
2023-03-22T02:56:38.611Z,26.70
2023-03-22T02:59:11.301Z,26.20
2023-03-22T03:01:44.840Z,26.70
2023-03-22T03:06:51.122Z,26.00
2023-03-22T03:09:20.358Z,26.30
2023-03-22T03:11:48.969Z,25.40
2023-03-22T03:14:34.024Z,25.70
2023-03-22T03:17:38.140Z,26.60
2023-03-22T03:20:07.489Z,24.70
2023-03-22T03:22:48.965Z,25.10
2023-03-22T03:25:31.023Z,26.70
2023-03-22T03:28:22.411Z,26.70
2023-03-22T03:31:13.745Z,26.60
2023-03-22T03:33:56.188Z,26.60
2023-03-22T03:36:25.465Z,27.50
2023-03-22T03:38:55.011Z,26.40
2023-03-22T03:41:28.304Z,28.30
2023-03-22T03:43:57.574Z,25.50
2023-03-22T03:46:24.579Z,26.70
2023-03-22T03:48:52.483Z,25.60
2023-03-22T03:51:19.045Z,25.00
2023-03-22T03:53:46.452Z,24.90
2023-03-22T03:56:13.850Z,25.40
2023-03-22T03:58:43.771Z,25.40
2023-03-22T04:01:10.597Z,25.90
2023-03-22T04:03:55.776Z,25.60
2023-03-22T04:06:41.040Z,26.90
2023-03-22T04:09:16.498Z,26.60
2023-03-22T04:11:45.880Z,27.00
2023-03-22T04:14:13.944Z,26.00
2023-03-22T04:16:41.097Z,26.80
2023-03-22T04:19:11.075Z,27.60
2023-03-22T04:21:37.724Z,28.40
2023-03-22T04:24:04.424Z,28.90
2023-03-22T04:26:35.065Z,27.60
2023-03-22T04:29:11.111Z,28.40
2023-03-22T04:31:41.253Z,28.30
2023-03-22T04:34:17.838Z,28.50
2023-03-22T04:36:50.710Z,28.50
2023-03-22T04:42:11.285Z,27.40
2023-03-22T04:44:38.780Z,28.00
2023-03-22T04:47:05.345Z,29.10
2023-03-22T04:49:32.280Z,32.30
2023-03-22T04:51:58.968Z,42.70
2023-03-22T04:54:30.377Z,42.80
2023-03-22T04:56:57.157Z,42.10
2023-03-22T04:59:24.012Z,35.40
2023-03-22T05:01:50.852Z,36.30
2023-03-22T05:04:20.182Z,37.40
2023-03-22T05:06:47.836Z,37.40
2023-03-22T05:09:23.253Z,39.70
2023-03-22T05:11:51.336Z,38.40
2023-03-22T05:14:27.846Z,37.80
2023-03-22T05:16:54.462Z,36.90
2023-03-22T05:19:21.569Z,36.80
2023-03-22T05:21:57.101Z,40.30
2023-03-22T05:24:25.683Z,39.10
2023-03-22T05:26:53.197Z,39.30
2023-03-22T05:29:21.922Z,39.60
2023-03-22T05:32:04.403Z,39.20
2023-03-22T05:34:34.932Z,39.70
2023-03-22T05:37:06.416Z,38.30
2023-03-22T05:39:54.560Z,38.40
2023-03-22T05:42:25.418Z,39.60
2023-03-22T05:44:51.957Z,38.30
2023-03-22T05:47:19.733Z,36.10
2023-03-22T05:50:02.540Z,36.10
2023-03-22T05:52:29.692Z,37.00
2023-03-22T05:55:22.650Z,34.90
2023-03-22T05:57:54.063Z,34.80
2023-03-22T06:00:21.093Z,34.60
2023-03-22T06:03:11.758Z,33.40
2023-03-22T06:05:42.056Z,32.70
2023-03-22T06:08:08.914Z,30.50
2023-03-22T06:10:35.466Z,28.70
2023-03-22T06:13:02.143Z,27.50
2023-03-22T06:15:31.441Z,26.10
2023-03-22T06:18:24.099Z,20.20
2023-03-22T06:20:57.747Z,21.50
2023-03-22T06:23:24.578Z,20.60
2023-03-22T06:25:51.587Z,19.50
2023-03-22T06:28:18.102Z,23.40
2023-03-22T06:30:53.418Z,20.40
2023-03-22T06:33:22.567Z,20.30
2023-03-22T06:35:53.995Z,18.90
2023-03-22T06:38:28.385Z,20.20
2023-03-22T06:40:55.367Z,20.80
2023-03-22T06:43:22.074Z,20.30
2023-03-22T06:45:49.558Z,20.40
2023-03-22T06:48:20.557Z,21.70
2023-03-22T06:51:13.383Z,22.50
2023-03-22T06:53:39.969Z,23.10
2023-03-22T06:56:06.891Z,20.90
2023-03-22T06:58:43.549Z,20.80
2023-03-22T07:01:10.058Z,19.90
2023-03-22T07:03:36.588Z,19.80
2023-03-22T07:06:08.063Z,19.40
2023-03-22T07:08:37.620Z,19.40
2023-03-22T07:11:06.074Z,19.10
2023-03-22T07:13:33.529Z,20.10
2023-03-22T07:16:03.045Z,19.20
2023-03-22T07:18:37.619Z,18.70
2023-03-22T07:21:04.671Z,19.20
2023-03-22T07:23:31.976Z,18.90
2023-03-22T07:26:04.154Z,20.20
2023-03-22T07:28:32.935Z,20.50
2023-03-22T07:31:05.963Z,19.50
2023-03-22T07:33:53.080Z,19.40
2023-03-22T07:36:23.163Z,17.80
2023-03-22T07:38:50.793Z,18.60
2023-03-22T07:41:23.412Z,20.90
2023-03-22T07:44:04.960Z,23.20
2023-03-22T07:46:43.650Z,22.20
2023-03-22T07:49:20.673Z,19.30
2023-03-22T07:52:02.381Z,17.60
2023-03-22T07:54:33.741Z,17.00
2023-03-22T07:57:01.546Z,17.00
2023-03-22T07:59:28.122Z,15.10
2023-03-22T08:01:54.854Z,15.40
2023-03-22T08:04:27.635Z,17.00
2023-03-22T08:07:10.884Z,17.20
2023-03-22T08:09:37.609Z,16.80
2023-03-22T08:12:04.697Z,16.60
2023-03-22T08:14:36.830Z,17.60
2023-03-22T08:17:06.024Z,15.60
2023-03-22T08:19:33.805Z,15.10
2023-03-22T08:22:00.517Z,15.00
2023-03-22T08:24:46.996Z,14.80
2023-03-22T08:27:23.896Z,16.60
2023-03-22T08:29:50.934Z,15.40
2023-03-22T08:32:17.577Z,13.70
2023-03-22T08:34:44.147Z,14.80
2023-03-22T08:37:11.972Z,15.30
2023-03-22T08:39:39.281Z,15.50
2023-03-22T08:42:35.712Z,16.10
2023-03-22T08:45:03.345Z,15.80
2023-03-22T08:47:30.861Z,14.30
2023-03-22T08:49:59.838Z,14.80
2023-03-22T08:52:43.720Z,15.00
2023-03-22T08:55:24.163Z,13.10
2023-03-22T08:58:19.276Z,14.10
2023-03-22T09:00:54.182Z,14.00
2023-03-22T09:03:39.086Z,17.30
2023-03-22T09:06:06.348Z,13.70
2023-03-22T09:08:37.543Z,13.40
2023-03-22T09:11:11.769Z,14.00
2023-03-22T09:13:38.564Z,14.50
2023-03-22T09:16:08.173Z,13.40
2023-03-22T09:18:36.122Z,16.60
2023-03-22T09:21:09.590Z,12.50
2023-03-22T09:23:46.876Z,12.50
2023-03-22T09:26:14.365Z,12.50
2023-03-22T09:28:41.241Z,12.50
2023-03-22T09:31:09.744Z,10.60
2023-03-22T09:33:38.008Z,11.20
2023-03-22T09:36:05.161Z,10.30
2023-03-22T09:38:33.099Z,10.60
2023-03-22T09:41:06.695Z,10.30
2023-03-22T09:43:43.195Z,8.90
2023-03-22T09:46:29.792Z,8.20
2023-03-22T09:48:59.341Z,7.90
2023-03-22T09:51:37.273Z,8.60
2023-03-22T09:54:11.827Z,9.60
2023-03-22T09:56:39.552Z,7.20
2023-03-22T09:59:21.260Z,6.50
2023-03-22T10:01:58.902Z,6.90
2023-03-22T10:04:50.280Z,6.70
2023-03-22T10:07:38.211Z,6.10
2023-03-22T10:10:18.140Z,6.30
2023-03-22T10:13:19.166Z,6.70
2023-03-22T10:15:47.308Z,6.60
2023-03-22T10:18:29.451Z,6.60
2023-03-22T10:21:02.912Z,7.90
2023-03-22T10:23:35.318Z,9.70
2023-03-22T10:26:04.398Z,8.90
2023-03-22T10:28:38.059Z,7.30
2023-03-22T10:31:06.288Z,6.40
2023-03-22T10:33:49.762Z,8.20
2023-03-22T10:36:20.189Z,7.20
2023-03-22T10:38:52.231Z,6.40
2023-03-22T10:41:22.638Z,8.30
2023-03-22T10:43:56.604Z,7.10
2023-03-22T10:46:26.743Z,7.60
2023-03-22T10:48:58.538Z,6.10
2023-03-22T10:51:47.013Z,6.80
2023-03-22T10:54:16.371Z,5.60
2023-03-22T10:56:44.368Z,7.00
2023-03-22T10:59:50.376Z,6.00
2023-03-22T11:02:29.180Z,6.50
2023-03-22T11:05:02.259Z,6.70
2023-03-22T11:07:39.354Z,6.30
2023-03-22T11:10:08.947Z,6.50
2023-03-22T11:12:39.923Z,4.40
2023-03-22T11:15:18.393Z,2.40
2023-03-22T11:17:44.900Z,3.00
2023-03-22T11:20:18.606Z,2.10
2023-03-22T11:22:47.432Z,2.20
2023-03-22T11:25:19.833Z,1.80
2023-03-22T11:27:53.269Z,2.50
2023-03-22T11:32:52.306Z,2.60
2023-03-22T11:35:26.344Z,2.60
2023-03-22T11:37:54.907Z,1.90
2023-03-22T11:40:28.601Z,1.70
2023-03-22T11:43:05.982Z,1.10
2023-03-22T11:45:36.084Z,2.00
2023-03-22T11:48:09.274Z,1.90
2023-03-22T11:50:39.389Z,2.90
2023-03-22T11:53:10.664Z,1.80
2023-03-22T11:55:37.524Z,1.50
2023-03-22T11:58:05.073Z,1.00
2023-03-22T12:00:36.948Z,1.20
2023-03-22T12:03:08.819Z,1.30
2023-03-22T12:05:40.772Z,1.70
2023-03-22T12:08:37.286Z,2.20
2023-03-22T12:11:11.457Z,1.50
2023-03-22T12:13:44.265Z,1.40
2023-03-22T12:16:14.146Z,1.40
2023-03-22T12:18:51.045Z,1.30
2023-03-22T12:21:17.655Z,1.50
2023-03-22T12:23:44.133Z,1.50
2023-03-22T12:26:25.754Z,1.30
2023-03-22T12:29:01.170Z,1.70
2023-03-22T12:31:32.126Z,1.30
2023-03-22T12:34:08.031Z,1.80
2023-03-22T12:36:41.103Z,2.30
2023-03-22T12:39:23.689Z,2.00
2023-03-22T12:41:53.339Z,8.20
2023-03-22T12:44:37.424Z,5.90
2023-03-22T12:47:30.545Z,2.80
2023-03-22T12:50:13.697Z,1.30
2023-03-22T12:52:47.619Z,7.30
2023-03-22T12:55:25.395Z,2.00
2023-03-22T12:57:53.913Z,6.40
2023-03-22T13:00:44.413Z,3.70
2023-03-22T13:03:17.249Z,2.40
2023-03-22T13:05:45.814Z,6.40
2023-03-22T13:08:12.763Z,4.10
2023-03-22T13:10:56.778Z,3.00
2023-03-22T13:13:23.478Z,2.60
2023-03-22T13:16:01.846Z,2.90
2023-03-22T13:18:31.788Z,4.10
2023-03-22T13:21:28.627Z,2.30
2023-03-22T13:23:57.086Z,1.50
2023-03-22T13:26:34.378Z,1.40
2023-03-22T13:29:10.306Z,5.00
2023-03-22T13:31:52.854Z,2.90
2023-03-22T13:34:31.763Z,4.60
2023-03-22T13:37:00.920Z,3.50
2023-03-22T13:39:33.850Z,2.70
2023-03-22T13:42:05.297Z,2.40
2023-03-22T13:44:43.202Z,2.60
2023-03-22T13:47:33.343Z,3.00
2023-03-22T13:50:15.343Z,3.10
2023-03-22T13:52:52.187Z,3.30
2023-03-22T13:55:48.167Z,3.30
2023-03-22T13:58:35.402Z,4.80
2023-03-22T14:01:15.006Z,4.80
2023-03-22T14:03:45.785Z,6.00
2023-03-22T14:06:21.702Z,4.00
2023-03-22T14:08:53.895Z,13.70
2023-03-22T14:11:28.128Z,10.00
2023-03-22T14:14:03.487Z,7.30
2023-03-22T14:16:39.748Z,5.50
2023-03-22T14:19:13.679Z,3.80
2023-03-22T14:21:43.784Z,2.80
